Página principal
METAR-TAF:

METAR-TAF

Aeroportos :

El Hierro, Espanha

latitude: 27-49N, longitude: 017-53W, altura: 32 m

Observação actual do tempo

O boletim foi feito há 33 minutos, às 22:00 UTC
Vento 17 kt de nor-nordeste, variando entre norte e nordeste
Temperatura 20°C
Humidade 64%
Pressão 1019 hPa
Visibilidade 10 km ou mais
Nuvens dispersasa uma altura de 3600 ft

METAR: GCHI 152200Z AUTO 03017KT 350V050 9999 SCT036 20/13 Q1019

Hora: 22:33 (22:33 UTC)

Previsão

O boletim foi feito há 2 horas e 33 minutos, às 20:00 UTC
Previsão válida de 15 às 21 UTC a 16 às 21 UTC
Vento 18 kt de nor-nordeste
Visibilidade 10 km ou mais
Nuvens fragmentadasa uma altura de 2500 ft
Probabilidade 30% :
Temporariamente
de 15 às 21 UTC a 16 às 21 UTC
Vento 20 kt de nor-nordeste com rajadas de 32 kt

TAF: GCHI 152000Z 1521/1621 03018KT 9999 BKN025 TX22/1614Z TN18/1606Z PROB30 TEMPO 1521/1621 02020G32KT

Observações e previsões do tempo de mais de 4000 aeroportos (mensagens METAR e TAF).

As estações disponíveis são os pontos amarelos e vermelhos sobre o mapa.

Mova o rato sobre o mapa para ver o nome da estação.

Depois clique no ponto para visualizar as observações e previsões meteorológicas.

Para alterar o mapa : clique nos botões verdes com uma cruz preta para aumentar o zoom; no botão verde com uma pitada de zoom; ou nas setas verdes para mapas adjacentes.


METAR-TAF: